Time;durP1;ratioP1;P1;durP2;ratioP2;P2;SDS_P1;SDS_P2;PMS_P1;PMS_P2;Temp;Humidity;BMP_temperature;BMP_pressure;BME280_temperature;BME280_humidity;BME280_pressure;Samples;Min_cycle;Max_cycle;Signal;HPM_P1;HPM_P2
2023/01/02 00:01:45;;;;;;;3.90;3.50;;;;;;;11.51;59.00;95953.47;6124762;23;20191;-83
2023/01/02 00:04:12;;;;;;;4.63;3.80;;;;;;;11.59;58.59;95961.13;6123699;23;20868;-84
2023/01/02 00:06:39;;;;;;;5.93;3.90;;;;;;;11.58;58.95;95971.63;6124241;23;20211;-82
2023/01/02 00:09:07;;;;;;;4.90;4.40;;;;;;;11.54;58.74;95960.88;6123658;23;20376;-83
2023/01/02 00:11:35;;;;;;;6.27;3.93;;;;;;;11.49;58.72;95959.78;6123623;23;20288;-83
2023/01/02 00:14:02;;;;;;;5.67;4.00;;;;;;;11.49;58.68;95954.63;6124352;23;20183;-83
2023/01/02 00:16:28;;;;;;;4.73;3.97;;;;;;;11.33;59.19;95948.63;6123477;23;20200;-84
2023/01/02 00:18:54;;;;;;;4.57;3.87;;;;;;;11.27;59.35;95954.44;6123575;23;20179;-84
2023/01/02 00:21:21;;;;;;;4.30;3.90;;;;;;;11.28;59.48;95950.91;6125836;23;20179;-83
2023/01/02 00:23:47;;;;;;;5.93;4.03;;;;;;;11.25;59.58;95950.44;6124490;23;20695;-84
2023/01/02 00:26:14;;;;;;;4.80;4.10;;;;;;;11.24;58.87;95954.78;6124348;23;20199;-82
2023/01/02 00:28:41;;;;;;;3.87;3.50;;;;;;;11.24;59.48;95952.22;6124710;23;20679;-83
2023/01/02 00:31:09;;;;;;;4.23;3.70;;;;;;;11.23;59.20;95954.94;6125028;23;20182;-84
2023/01/02 00:33:36;;;;;;;4.27;3.57;;;;;;;11.19;59.11;95948.53;6123984;23;20239;-82
2023/01/02 00:36:05;;;;;;;4.40;3.70;;;;;;;11.14;58.96;95946.47;6124945;23;20206;-83
2023/01/02 00:38:32;;;;;;;6.27;4.03;;;;;;;11.05;59.35;95952.66;6124232;23;20171;-83
2023/01/02 00:40:59;;;;;;;4.27;3.87;;;;;;;10.96;59.67;95949.34;6124920;23;20693;-84
2023/01/02 00:43:25;;;;;;;5.00;3.77;;;;;;;10.91;60.16;95946.44;6123968;23;20184;-83
2023/01/02 00:45:53;;;;;;;4.80;3.50;;;;;;;10.81;60.20;95945.03;6123684;23;20510;-83
2023/01/02 00:48:19;;;;;;;3.83;3.37;;;;;;;10.82;60.25;95936.34;6123763;23;20199;-83
2023/01/02 00:50:46;;;;;;;5.37;4.13;;;;;;;10.82;60.02;95938.91;6123881;23;20650;-83
2023/01/02 00:53:12;;;;;;;4.03;3.60;;;;;;;10.84;59.69;95937.78;6123982;23;20187;-84
2023/01/02 00:55:39;;;;;;;4.27;3.87;;;;;;;10.77;60.48;95923.19;6123998;23;20706;-83
2023/01/02 00:58:05;;;;;;;4.50;4.03;;;;;;;10.63;60.84;95932.41;6123388;23;20190;-83
2023/01/02 01:00:32;;;;;;;4.70;3.97;;;;;;;10.73;60.46;95933.03;6124213;23;20521;-83
2023/01/02 01:03:00;;;;;;;3.80;3.50;;;;;;;10.75;60.80;95930.28;6129292;23;20187;-82
2023/01/02 01:05:28;;;;;;;4.90;4.17;;;;;;;10.78;60.95;95935.06;6124947;23;20207;-83
2023/01/02 01:07:56;;;;;;;4.13;3.73;;;;;;;10.79;60.52;95940.06;6124920;23;20211;-84
2023/01/02 01:10:23;;;;;;;4.33;3.57;;;;;;;10.83;60.39;95945.69;6122927;23;20179;-82
2023/01/02 01:12:49;;;;;;;4.13;3.57;;;;;;;10.85;60.56;95946.31;6123488;23;20172;-83
2023/01/02 01:15:16;;;;;;;4.50;3.70;;;;;;;10.81;60.38;95942.47;6123257;23;20649;-83
2023/01/02 01:17:42;;;;;;;4.63;3.87;;;;;;;10.74;60.80;95944.94;6122475;23;20196;-82
2023/01/02 01:20:11;;;;;;;4.53;4.03;;;;;;;10.65;61.75;95945.94;6124153;23;20740;-84
2023/01/02 01:22:37;;;;;;;4.00;3.60;;;;;;;10.61;61.45;95945.44;6123698;23;20191;-84
2023/01/02 01:25:04;;;;;;;5.57;3.80;;;;;;;10.53;61.60;95942.13;6122924;23;20179;-82
2023/01/02 01:27:31;;;;;;;5.93;3.90;;;;;;;10.48;61.78;95934.91;6122527;23;20200;-83
2023/01/02 01:29:57;;;;;;;3.87;3.47;;;;;;;10.34;62.38;95933.03;6123386;23;20180;-83
2023/01/02 01:32:24;;;;;;;4.83;4.00;;;;;;;10.20;62.88;95938.88;6123644;23;20175;-82
2023/01/02 01:34:50;;;;;;;4.43;4.03;;;;;;;10.19;63.43;95937.25;6123320;23;20198;-82
2023/01/02 01:37:18;;;;;;;4.23;3.83;;;;;;;10.22;63.52;95934.34;6123629;23;20254;-82
2023/01/02 01:39:44;;;;;;;5.63;4.37;;;;;;;10.24;63.06;95929.81;6123281;23;20180;-82
2023/01/02 01:42:13;;;;;;;4.13;3.73;;;;;;;10.13;63.79;95938.69;6123398;23;20180;-83
2023/01/02 01:44:46;;;;;;;3.80;3.50;;;;;;;10.27;63.32;95934.66;6123311;23;20180;-82
2023/01/02 01:47:22;;;;;;;7.53;4.40;;;;;;;10.20;63.70;95931.16;6122066;23;20206;-83
2023/01/02 01:49:54;;;;;;;4.10;3.40;;;;;;;10.30;63.74;95937.69;6122760;23;20171;-83
2023/01/02 01:52:25;;;;;;;5.03;3.60;;;;;;;10.32;63.04;95942.69;6123705;23;20211;-83
2023/01/02 01:54:55;;;;;;;4.97;3.93;;;;;;;10.32;62.86;95940.91;6123151;23;20538;-82
2023/01/02 01:57:28;;;;;;;4.80;3.97;;;;;;;10.29;63.23;95941.25;6123554;23;20204;-83
2023/01/02 01:59:56;;;;;;;4.87;3.63;;;;;;;10.32;62.96;95942.69;6123508;23;20239;-84
2023/01/02 02:02:24;;;;;;;4.20;3.80;;;;;;;10.44;62.35;95943.13;6123785;23;20171;-82
2023/01/02 02:04:50;;;;;;;5.13;3.80;;;;;;;10.44;62.79;95950.84;6123033;23;20163;-83
2023/01/02 02:07:17;;;;;;;5.07;4.13;;;;;;;10.37;62.83;95956.66;6122856;23;20258;-83
2023/01/02 02:09:51;;;;;;;4.83;3.90;;;;;;;10.47;62.73;95948.75;6122700;23;20677;-82
2023/01/02 02:12:17;;;;;;;4.50;3.90;;;;;;;10.46;62.56;95941.97;6123649;23;20164;-83
2023/01/02 02:14:44;;;;;;;4.20;3.67;;;;;;;10.28;63.38;95936.25;6122688;23;20677;-82
2023/01/02 02:17:19;;;;;;;3.77;3.43;;;;;;;10.31;63.39;95941.06;6122711;23;20685;-83
2023/01/02 02:20:06;;;;;;;4.00;3.60;;;;;;;10.20;64.02;95934.50;6122722;23;20706;-82
2023/01/02 02:23:05;;;;;;;4.13;3.70;;;;;;;10.25;63.91;95934.81;6122969;23;20164;-83
2023/01/02 02:26:02;;;;;;;5.00;4.47;;;;;;;10.33;63.61;95929.66;6123233;23;20603;-82
2023/01/02 02:28:49;;;;;;;4.20;3.80;;;;;;;10.34;62.99;95927.88;6122297;23;20235;-83
2023/01/02 02:31:23;;;;;;;5.03;4.10;;;;;;;10.20;63.35;95933.72;6122793;23;20171;-82
2023/01/02 02:33:58;;;;;;;4.20;3.80;;;;;;;10.19;63.77;95924.41;6123064;23;20160;-82
2023/01/02 02:36:34;;;;;;;5.53;4.30;;;;;;;10.21;63.65;95933.53;6122366;23;20199;-82
2023/01/02 02:39:13;;;;;;;5.53;4.27;;;;;;;10.28;63.40;95928.53;6123085;23;20159;-82
2023/01/02 02:41:46;;;;;;;4.90;4.10;;;;;;;10.17;63.46;95927.09;6124560;23;20163;-83
2023/01/02 02:44:25;;;;;;;4.33;3.73;;;;;;;10.16;63.67;95924.69;6125239;23;20502;-83
2023/01/02 02:46:59;;;;;;;4.63;4.20;;;;;;;10.19;63.39;95914.09;6124155;23;20203;-83
2023/01/02 02:49:36;;;;;;;4.33;3.57;;;;;;;10.16;63.45;95911.81;6124144;23;20235;-82
2023/01/02 02:52:07;;;;;;;5.00;4.00;;;;;;;10.09;64.09;95906.53;6125043;23;20222;-84
2023/01/02 02:54:43;;;;;;;5.07;3.80;;;;;;;10.15;63.57;95913.59;6124465;23;20167;-84
2023/01/02 02:57:11;;;;;;;3.90;3.50;;;;;;;10.19;63.38;95898.66;6123840;23;20258;-83
2023/01/02 02:59:40;;;;;;;4.43;4.00;;;;;;;10.10;63.85;95903.00;6124913;23;20621;-82
2023/01/02 03:02:07;;;;;;;5.57;4.23;;;;;;;10.09;63.90;95903.16;6124769;23;20179;-83
2023/01/02 03:04:34;;;;;;;4.10;3.50;;;;;;;10.04;64.28;95894.16;6125384;23;20234;-83
2023/01/02 03:07:11;;;;;;;4.67;3.70;;;;;;;10.12;63.53;95887.38;6123607;23;20207;-82
2023/01/02 03:09:48;;;;;;;4.07;3.67;;;;;;;10.18;63.44;95902.19;6124224;23;20187;-83
2023/01/02 03:12:24;;;;;;;4.27;3.87;;;;;;;9.95;64.72;95902.06;6124813;23;20171;-83
2023/01/02 03:14:58;;;;;;;5.43;4.17;;;;;;;9.76;65.01;95900.66;6125081;23;20163;-82
2023/01/02 03:17:33;;;;;;;5.33;3.73;;;;;;;9.77;65.33;95891.19;6124178;23;20556;-83
2023/01/02 03:20:06;;;;;;;5.93;4.47;;;;;;;9.65;65.05;95886.38;6124928;23;20167;-83
2023/01/02 03:22:36;;;;;;;6.00;3.93;;;;;;;9.71;64.90;95879.78;6124902;23;20164;-82
2023/01/02 03:25:04;;;;;;;5.60;3.80;;;;;;;9.81;65.17;95877.03;6124521;23;20262;-82
2023/01/02 03:27:34;;;;;;;4.00;3.60;;;;;;;9.81;65.45;95877.03;6125988;23;20247;-82
2023/01/02 03:30:04;;;;;;;4.07;3.67;;;;;;;9.79;66.05;95866.13;6125450;23;20180;-81
2023/01/02 03:32:35;;;;;;;6.43;3.97;;;;;;;9.72;65.70;95854.88;6125018;23;20561;-82
2023/01/02 03:35:06;;;;;;;4.03;3.23;;;;;;;9.78;65.26;95852.44;6125520;23;20483;-83
2023/01/02 03:37:35;;;;;;;4.00;3.20;;;;;;;9.94;65.24;95859.31;6124456;23;20604;-82
2023/01/02 03:40:07;;;;;;;5.00;3.37;;;;;;;10.02;64.75;95856.69;6125362;23;20176;-83
2023/01/02 03:42:39;;;;;;;4.63;3.73;;;;;;;10.10;64.88;95853.31;6124945;23;20538;-83
2023/01/02 03:45:09;;;;;;;4.53;3.60;;;;;;;10.23;63.94;95856.16;6125281;23;20167;-83
2023/01/02 03:47:42;;;;;;;4.07;3.20;;;;;;;10.26;63.61;95861.00;6123359;23;20226;-82
2023/01/02 03:50:15;;;;;;;3.70;3.20;;;;;;;10.24;63.33;95855.19;6124126;23;20274;-82
2023/01/02 03:52:41;;;;;;;3.70;3.40;;;;;;;10.29;63.02;95856.31;6125816;23;20164;-83
2023/01/02 03:55:08;;;;;;;3.73;3.07;;;;;;;10.16;63.07;95843.16;6124733;23;20179;-82
2023/01/02 03:57:50;;;;;;;4.03;3.20;;;;;;;10.21;63.09;95851.19;6123824;23;20680;-82
2023/01/02 04:00:19;;;;;;;3.27;2.47;;;;;;;10.24;62.55;95853.44;6124280;23;20168;-83
2023/01/02 04:02:53;;;;;;;2.73;2.53;;;;;;;10.28;62.84;95854.72;6124496;23;20227;-82
2023/01/02 04:05:25;;;;;;;3.37;2.80;;;;;;;10.39;62.38;95856.13;6124846;23;20194;-83
2023/01/02 04:07:59;;;;;;;2.83;2.60;;;;;;;10.44;62.20;95858.16;6123939;23;20214;-82
2023/01/02 04:10:27;;;;;;;3.17;2.87;;;;;;;10.49;62.24;95850.75;6124150;23;20160;-83
2023/01/02 04:12:59;;;;;;;4.07;3.00;;;;;;;10.52;62.20;95858.13;6123917;23;20649;-82
2023/01/02 04:15:31;;;;;;;3.60;3.10;;;;;;;10.55;62.25;95850.88;6124204;23;20164;-83
2023/01/02 04:18:02;;;;;;;3.40;2.60;;;;;;;10.54;62.06;95856.19;6124204;23;20168;-83
2023/01/02 04:20:33;;;;;;;3.23;2.70;;;;;;;10.54;61.71;95861.34;6124391;23;20219;-82
2023/01/02 04:23:05;;;;;;;3.30;3.00;;;;;;;10.54;62.01;95859.56;6124675;23;20160;-83
2023/01/02 04:25:37;;;;;;;3.93;2.90;;;;;;;10.47;62.32;95862.97;6124222;23;20546;-84
2023/01/02 04:28:12;;;;;;;2.80;2.50;;;;;;;10.46;62.39;95854.47;6122578;23;20191;-83
2023/01/02 04:30:42;;;;;;;3.40;2.93;;;;;;;10.44;62.36;95853.03;6124628;23;20170;-82
2023/01/02 04:33:12;;;;;;;3.27;2.97;;;;;;;10.44;62.37;95863.31;6123869;23;20167;-82
2023/01/02 04:35:38;;;;;;;3.03;2.73;;;;;;;10.41;62.08;95855.94;6124170;23;20179;-83
2023/01/02 04:38:08;;;;;;;3.33;2.97;;;;;;;10.40;62.36;95868.00;6122642;23;20167;-83
2023/01/02 04:40:36;;;;;;;4.00;3.07;;;;;;;10.37;62.19;95865.78;6123958;23;20182;-82
2023/01/02 04:43:05;;;;;;;5.97;3.10;;;;;;;10.32;62.44;95873.19;6124989;23;20182;-82
2023/01/02 04:45:32;;;;;;;3.80;2.90;;;;;;;10.31;62.12;95876.72;6124971;23;20187;-83
2023/01/02 04:47:58;;;;;;;3.93;3.33;;;;;;;10.28;62.31;95871.91;6123208;23;20175;-82
2023/01/02 04:50:26;;;;;;;3.47;3.17;;;;;;;10.16;62.73;95868.09;6125007;23;20195;-84
2023/01/02 04:52:52;;;;;;;3.33;2.80;;;;;;;10.14;62.31;95862.31;6124651;23;20184;-83
2023/01/02 04:55:18;;;;;;;3.63;3.17;;;;;;;9.88;62.91;95868.47;6124202;23;20630;-81
2023/01/02 04:57:45;;;;;;;4.00;3.10;;;;;;;9.82;63.24;95868.31;6124615;23;20196;-83
2023/01/02 05:00:12;;;;;;;3.37;2.70;;;;;;;9.72;63.60;95870.28;6124881;23;20176;-83
2023/01/02 05:02:39;;;;;;;3.73;3.30;;;;;;;9.70;63.79;95870.47;6124957;23;20234;-83
2023/01/02 05:05:08;;;;;;;3.63;2.77;;;;;;;9.76;63.57;95876.72;6125316;23;20653;-81
2023/01/02 05:07:36;;;;;;;3.07;2.77;;;;;;;9.75;63.40;95875.13;6124224;23;20211;-81
2023/01/02 05:10:03;;;;;;;3.53;2.77;;;;;;;9.76;63.24;95869.00;6125865;23;20203;-81
2023/01/02 05:12:32;;;;;;;3.50;2.80;;;;;;;9.66;63.88;95877.69;6125668;23;20238;-81
2023/01/02 05:14:59;;;;;;;4.27;2.90;;;;;;;9.66;63.81;95880.25;6125961;23;20637;-81
2023/01/02 05:17:25;;;;;;;4.43;3.10;;;;;;;9.56;64.38;95881.41;6124494;23;20231;-81
2023/01/02 05:19:51;;;;;;;4.30;3.27;;;;;;;9.59;64.21;95873.38;6124409;23;20172;-81
2023/01/02 05:25:04;;;;;;;3.10;2.80;;;;;;;9.42;64.84;95869.22;6124757;23;20166;-82
2023/01/02 05:27:31;;;;;;;4.03;2.80;;;;;;;9.40;64.78;95868.59;6124284;23;20279;-83
2023/01/02 05:29:57;;;;;;;4.20;2.93;;;;;;;9.41;64.89;95876.13;6124412;23;20260;-83
2023/01/02 05:32:23;;;;;;;3.33;3.03;;;;;;;9.46;64.46;95875.63;6124551;23;20235;-84
2023/01/02 05:34:50;;;;;;;4.10;3.03;;;;;;;9.45;65.06;95874.03;6123823;23;20183;-81
2023/01/02 05:37:16;;;;;;;3.20;2.90;;;;;;;9.41;65.28;95878.69;6125033;23;20262;-81
2023/01/02 05:39:42;;;;;;;4.23;2.90;;;;;;;9.49;64.65;95870.97;6124373;23;20179;-81
2023/01/02 05:42:10;;;;;;;3.70;3.03;;;;;;;9.48;64.68;95869.38;6124933;23;20180;-83
2023/01/02 05:44:36;;;;;;;2.70;2.50;;;;;;;9.49;64.39;95873.53;6124852;23;20193;-81
2023/01/02 05:47:03;;;;;;;5.70;3.17;;;;;;;9.45;64.54;95868.88;6123303;23;20328;-84
2023/01/02 05:49:29;;;;;;;4.90;3.30;;;;;;;9.43;64.34;95869.03;6124760;23;20199;-83
2023/01/02 05:51:55;;;;;;;3.00;2.70;;;;;;;9.52;64.54;95872.41;6121010;23;20180;-84
2023/01/02 05:54:22;;;;;;;3.70;2.60;;;;;;;9.58;64.67;95888.00;6120878;23;20778;-83
2023/01/02 05:56:48;;;;;;;3.60;3.03;;;;;;;9.60;64.78;95891.22;6123481;23;20215;-84
2023/01/02 05:59:16;;;;;;;3.67;2.90;;;;;;;9.61;64.64;95894.59;6123845;23;20179;-84
2023/01/02 06:01:42;;;;;;;4.47;3.07;;;;;;;9.58;64.44;95900.06;6123870;23;20692;-83
2023/01/02 06:04:09;;;;;;;4.60;3.40;;;;;;;9.56;64.46;95910.50;6123001;23;20175;-84
2023/01/02 06:06:38;;;;;;;4.23;3.47;;;;;;;9.52;64.70;95916.13;6122764;23;20208;-84
2023/01/02 06:09:05;;;;;;;3.43;3.10;;;;;;;9.53;64.60;95915.94;6123300;23;20565;-82
2023/01/02 06:11:33;;;;;;;3.30;2.77;;;;;;;9.50;64.48;95921.41;6122416;23;20179;-83
2023/01/02 06:14:00;;;;;;;3.70;2.50;;;;;;;9.46;64.59;95917.56;6124071;23;20183;-84
2023/01/02 06:16:27;;;;;;;3.00;2.60;;;;;;;9.39;64.16;95910.66;6130062;23;20270;-82
2023/01/02 06:18:55;;;;;;;3.83;2.70;;;;;;;9.34;64.45;95916.28;6127407;23;20737;-81
2023/01/02 06:21:22;;;;;;;3.93;3.07;;;;;;;9.33;64.34;95900.06;6128289;23;20176;-81
2023/01/02 06:23:53;;;;;;;7.00;3.37;;;;;;;9.14;69.33;95910.66;6128267;23;20185;-82
2023/01/02 06:26:21;;;;;;;3.37;3.07;;;;;;;9.10;66.84;95905.97;6127562;23;20231;-83
2023/01/02 06:28:50;;;;;;;3.63;3.27;;;;;;;9.00;67.62;95909.50;6126415;23;20183;-82
2023/01/02 06:31:18;;;;;;;4.67;3.20;;;;;;;9.00;66.21;95906.94;6127841;23;20175;-81
2023/01/02 06:33:46;;;;;;;5.53;3.30;;;;;;;8.89;68.04;95904.66;6128055;23;20191;-83
2023/01/02 06:36:15;;;;;;;11.13;3.73;;;;;;;8.95;66.93;95911.75;6128168;23;20195;-84
2023/01/02 06:38:42;;;;;;;4.47;3.20;;;;;;;8.95;66.34;95898.91;6125139;23;20183;-84
2023/01/02 06:41:09;;;;;;;5.07;4.50;;;;;;;8.98;65.87;95897.78;6129933;23;20672;-83
2023/01/02 06:43:40;;;;;;;13.57;10.60;;;;;;;8.97;65.90;95914.97;6124639;23;20522;-82
2023/01/02 06:46:07;;;;;;;7.13;4.80;;;;;;;9.04;65.65;95915.16;6126731;23;20207;-84
2023/01/02 06:48:34;;;;;;;4.93;3.47;;;;;;;9.13;65.65;95895.38;6125823;23;20186;-84
2023/01/02 06:51:04;;;;;;;5.83;3.23;;;;;;;8.95;65.68;95904.03;6126947;23;20204;-82
2023/01/02 06:53:33;;;;;;;5.67;3.50;;;;;;;8.90;65.67;95895.19;6124631;23;20175;-83
2023/01/02 06:55:59;;;;;;;4.77;3.47;;;;;;;8.83;66.16;95894.25;6127848;23;20549;-80
2023/01/02 06:58:29;;;;;;;4.70;3.73;;;;;;;8.88;65.85;95903.06;6128373;23;20598;-81
2023/01/02 07:00:55;;;;;;;6.07;4.33;;;;;;;8.94;65.61;95899.06;6125940;23;20254;-81
2023/01/02 07:03:22;;;;;;;5.17;3.70;;;;;;;8.96;65.96;95907.41;6128465;23;20179;-80
2023/01/02 07:05:48;;;;;;;5.43;3.83;;;;;;;8.98;66.13;95898.59;6128072;23;20183;-83
2023/01/02 07:08:16;;;;;;;5.47;4.17;;;;;;;8.96;65.90;95897.94;6125155;23;20183;-83
2023/01/02 07:10:42;;;;;;;6.97;4.23;;;;;;;8.98;65.74;95902.94;6131351;23;20231;-80
2023/01/02 07:13:09;;;;;;;5.97;3.63;;;;;;;8.99;65.54;95900.19;6130067;23;20186;-81
2023/01/02 07:15:37;;;;;;;5.07;3.97;;;;;;;8.98;65.66;95898.59;6127838;23;20187;-82
2023/01/02 07:18:03;;;;;;;8.40;3.73;;;;;;;8.99;66.10;95905.34;6125944;23;20187;-82
2023/01/02 07:20:30;;;;;;;5.20;4.27;;;;;;;8.99;66.01;95894.25;6124195;23;20235;-82
2023/01/02 07:22:56;;;;;;;7.13;4.37;;;;;;;8.88;65.65;95900.50;6126787;23;20180;-82
2023/01/02 07:25:24;;;;;;;22.00;14.17;;;;;;;8.99;66.08;95913.03;6126720;23;20207;-80
2023/01/02 07:27:50;;;;;;;11.20;5.70;;;;;;;9.06;65.96;95917.53;6127430;23;20195;-81
2023/01/02 07:30:17;;;;;;;7.93;4.07;;;;;;;9.03;65.86;95926.38;6130220;23;20207;-81
2023/01/02 07:32:43;;;;;;;6.37;3.93;;;;;;;9.11;65.59;95935.84;6128354;23;20180;-82
2023/01/02 07:35:10;;;;;;;8.40;4.00;;;;;;;9.13;65.71;95937.28;6132623;23;20777;-82
2023/01/02 07:37:37;;;;;;;5.97;3.70;;;;;;;9.16;65.21;95936.97;6126525;23;20221;-81
2023/01/02 07:40:04;;;;;;;5.50;3.93;;;;;;;9.24;65.07;95931.84;6127849;23;20692;-83
2023/01/02 07:42:32;;;;;;;6.77;4.10;;;;;;;9.19;64.92;95917.88;6129653;23;20600;-83
2023/01/02 07:44:58;;;;;;;5.70;4.20;;;;;;;9.17;64.80;95927.50;6129548;23;20183;-81
2023/01/02 07:47:25;;;;;;;4.00;3.60;;;;;;;9.23;64.92;95921.75;6128010;23;20191;-82
2023/01/02 07:49:51;;;;;;;8.13;3.93;;;;;;;9.25;65.04;95918.03;6128016;23;20210;-81
2023/01/02 07:52:18;;;;;;;5.23;4.27;;;;;;;9.22;65.30;95920.13;6127795;23;20185;-82
2023/01/02 07:54:44;;;;;;;7.60;4.33;;;;;;;9.34;65.52;95921.41;6129600;23;20258;-83
2023/01/02 07:57:11;;;;;;;4.63;3.70;;;;;;;9.34;65.46;95913.72;6128270;23;20261;-81
2023/01/02 07:59:38;;;;;;;4.47;4.00;;;;;;;9.50;64.81;95908.56;6130304;23;20180;-83
2023/01/02 08:02:05;;;;;;;5.90;3.97;;;;;;;9.59;64.82;95906.81;6128675;23;20179;-82
2023/01/02 08:04:31;;;;;;;5.47;4.13;;;;;;;9.81;64.28;95918.19;6128634;23;20186;-83
2023/01/02 08:06:58;;;;;;;9.03;4.33;;;;;;;9.95;64.02;95927.78;6127555;23;20267;-84
2023/01/02 08:09:25;;;;;;;4.83;4.17;;;;;;;10.12;63.99;95929.34;6132325;23;20175;-83
2023/01/02 08:11:51;;;;;;;6.77;4.20;;;;;;;10.31;63.35;95935.94;6131045;23;20176;-81
2023/01/02 08:14:17;;;;;;;5.60;4.27;;;;;;;10.43;63.47;95946.66;6127477;23;20234;-80
2023/01/02 08:16:45;;;;;;;10.57;5.07;;;;;;;10.54;62.71;95952.25;6128384;23;20541;-84
2023/01/02 08:19:11;;;;;;;7.33;4.23;;;;;;;10.72;62.62;95947.69;6125045;23;20176;-81
2023/01/02 08:21:38;;;;;;;39.33;25.17;;;;;;;10.70;61.91;95949.63;6124932;23;20183;-82
2023/01/02 08:24:06;;;;;;;8.17;6.43;;;;;;;10.88;61.66;95943.41;6125051;23;20518;-82
2023/01/02 08:26:33;;;;;;;5.97;4.23;;;;;;;10.98;61.67;95946.56;6125175;23;20255;-81
2023/01/02 08:28:59;;;;;;;7.70;4.40;;;;;;;11.21;61.48;95944.00;6125079;23;20680;-82
2023/01/02 08:31:26;;;;;;;11.07;4.83;;;;;;;11.42;60.78;95944.19;6125357;23;20824;-82
2023/01/02 08:33:54;;;;;;;7.17;4.90;;;;;;;11.63;59.88;95948.69;6125462;23;20179;-81
2023/01/02 08:36:20;;;;;;;9.40;4.60;;;;;;;11.81;59.69;95946.63;6124085;23;20196;-82
2023/01/02 08:38:47;;;;;;;5.00;4.00;;;;;;;12.05;59.00;95951.56;6125098;23;20521;-81
2023/01/02 08:41:14;;;;;;;13.90;5.33;;;;;;;12.28;58.25;95963.63;6125384;23;20179;-82
2023/01/02 08:43:40;;;;;;;7.77;4.30;;;;;;;12.44;57.73;95961.66;6124400;23;20179;-82
2023/01/02 08:46:09;;;;;;;6.07;4.87;;;;;;;12.62;57.34;95960.50;6124392;23;20196;-82
2023/01/02 08:48:36;;;;;;;13.90;4.60;;;;;;;12.73;56.55;95970.34;6125330;23;20164;-81
2023/01/02 08:51:04;;;;;;;9.47;4.63;;;;;;;12.82;56.33;95973.66;6124766;23;20234;-81
2023/01/02 08:53:30;;;;;;;8.73;4.43;;;;;;;12.90;56.18;95971.75;6124915;23;20180;-82
2023/01/02 08:56:22;;;;;;;5.53;4.47;;;;;;;12.96;55.46;95978.78;6124912;23;20206;-82
2023/01/02 08:58:50;;;;;;;4.83;4.03;;;;;;;13.09;55.75;95972.97;6124494;23;20193;-82
2023/01/02 09:01:17;;;;;;;5.90;3.93;;;;;;;13.18;55.42;95971.91;6125184;23;20172;-81
2023/01/02 09:03:43;;;;;;;7.63;4.23;;;;;;;13.29;55.41;95962.84;6125130;23;20525;-82
2023/01/02 09:06:11;;;;;;;4.80;4.20;;;;;;;13.27;54.71;95968.25;6125024;23;20205;-82
2023/01/02 09:08:37;;;;;;;4.33;3.90;;;;;;;13.28;54.50;95967.22;6125017;23;20183;-82
2023/01/02 09:11:10;;;;;;;5.07;4.23;;;;;;;13.39;54.84;95964.16;6124936;23;20589;-81
2023/01/02 09:13:37;;;;;;;7.23;4.40;;;;;;;13.42;54.85;95963.00;6125847;23;20689;-82
2023/01/02 09:16:04;;;;;;;5.07;3.93;;;;;;;13.59;54.93;95961.78;6124747;23;20199;-81
2023/01/02 09:18:30;;;;;;;6.87;4.07;;;;;;;13.71;54.66;95962.84;6124323;23;20182;-82
2023/01/02 09:20:56;;;;;;;5.37;3.90;;;;;;;13.80;54.05;95969.53;6124947;23;20329;-83
2023/01/02 09:23:24;;;;;;;8.53;4.20;;;;;;;13.89;53.92;95967.56;6124803;23;20180;-81
2023/01/02 09:25:50;;;;;;;8.77;5.97;;;;;;;14.02;54.06;95962.53;6124975;23;20175;-83
2023/01/02 09:28:17;;;;;;;15.45;10.82;;;;;;;14.14;53.35;95966.19;6125196;23;20183;-81
2023/01/02 09:30:43;;;;;;;9.65;4.70;;;;;;;14.13;52.50;95961.19;6125756;23;20200;-82
2023/01/02 09:33:10;;;;;;;5.78;4.20;;;;;;;14.14;52.09;95962.78;6124988;23;20171;-83
2023/01/02 09:35:36;;;;;;;8.68;5.25;;;;;;;14.30;52.06;95965.09;6125877;23;20190;-82
2023/01/02 09:38:02;;;;;;;10.82;4.80;;;;;;;14.57;52.11;95965.28;6125389;23;20179;-80
2023/01/02 09:40:32;;;;;;;9.73;5.25;;;;;;;14.80;51.34;95964.00;6125122;23;20184;-83
2023/01/02 09:42:59;;;;;;;5.47;4.43;;;;;;;15.12;51.51;95969.50;6125347;23;20179;-83
2023/01/02 09:45:26;;;;;;;6.70;4.68;;;;;;;15.37;51.17;95960.19;6125912;23;20180;-82
2023/01/02 09:47:55;;;;;;;4.97;4.32;;;;;;;15.44;50.15;95960.16;6123388;23;20203;-82
2023/01/02 09:50:25;;;;;;;10.35;4.32;;;;;;;15.49;50.06;95963.78;6124889;23;20689;-81
2023/01/02 09:52:54;;;;;;;6.72;4.35;;;;;;;15.65;49.87;95974.81;6124829;23;20176;-82
2023/01/02 09:55:34;;;;;;;7.43;4.53;;;;;;;15.79;49.54;95977.22;6124273;23;20207;-82
2023/01/02 09:58:10;;;;;;;6.25;4.20;;;;;;;15.66;50.41;95979.81;6124261;23;20199;-82
2023/01/02 10:00:38;;;;;;;15.63;12.55;;;;;;;15.84;48.49;95976.63;6124622;23;20191;-82
2023/01/02 10:03:14;;;;;;;12.95;10.27;;;;;;;16.00;47.94;95971.03;6125167;23;20186;-81
2023/01/02 10:06:01;;;;;;;6.05;3.80;;;;;;;16.16;47.06;95967.25;6124777;23;20510;-82
2023/01/02 10:08:38;;;;;;;4.00;3.60;;;;;;;16.33;46.60;95963.22;6124793;23;20267;-82
2023/01/02 10:11:22;;;;;;;3.90;2.75;;;;;;;16.49;45.55;95967.97;6125230;23;20179;-82
2023/01/02 10:17:14;;;;;;;4.88;2.22;;;;;;;16.79;44.14;95952.69;6122321;23;20586;-84
2023/01/02 10:19:48;;;;;;;2.30;2.08;;;;;;;16.85;44.19;95940.69;6123702;23;20617;-83
2023/01/02 10:22:20;;;;;;;3.78;2.08;;;;;;;16.90;43.88;95933.88;6124894;23;20167;-83
2023/01/02 10:24:54;;;;;;;3.80;1.80;;;;;;;17.00;43.76;95941.22;6124993;23;20164;-82
2023/01/02 10:27:29;;;;;;;4.78;2.75;;;;;;;17.10;43.85;95941.56;6124725;23;20699;-83
2023/01/02 10:30:05;;;;;;;5.93;2.60;;;;;;;17.18;43.29;95946.53;6124702;23;20166;-82
2023/01/02 10:32:34;;;;;;;2.30;2.03;;;;;;;17.11;43.49;95931.97;6124614;23;20171;-83
2023/01/02 10:35:11;;;;;;;2.60;2.22;;;;;;;16.98;42.82;95929.41;6125180;23;20179;-83
2023/01/02 10:37:37;;;;;;;3.05;2.38;;;;;;;16.86;43.68;95918.88;6124688;23;20199;-82
2023/01/02 10:40:05;;;;;;;2.05;1.85;;;;;;;16.56;43.11;95914.16;6125075;23;20179;-83
2023/01/02 10:42:33;;;;;;;2.85;1.90;;;;;;;16.41;44.23;95916.19;6125059;23;20184;-83
2023/01/02 10:45:00;;;;;;;3.33;2.33;;;;;;;16.31;44.74;95904.66;6125457;23;20211;-82
2023/01/02 10:47:33;;;;;;;3.50;2.00;;;;;;;16.20;44.17;95901.66;6123919;23;20514;-82
2023/01/02 10:50:01;;;;;;;6.95;6.18;;;;;;;16.16;44.66;95905.66;6125730;23;20759;-82
2023/01/02 10:52:32;;;;;;;39.10;33.63;;;;;;;16.11;44.70;95912.47;6124218;23;20199;-83
2023/01/02 10:54:59;;;;;;;22.10;18.95;;;;;;;16.13;44.96;95919.06;6129071;23;20183;-82
2023/01/02 10:57:38;;;;;;;7.28;5.68;;;;;;;16.22;44.15;95919.66;6126296;23;20199;-81
2023/01/02 11:00:07;;;;;;;8.30;3.45;;;;;;;16.31;43.80;95915.84;6127133;23;20164;-81
2023/01/02 11:02:38;;;;;;;2.15;1.95;;;;;;;16.40;43.77;95919.00;6126839;23;20175;-82
2023/01/02 11:05:06;;;;;;;2.42;1.90;;;;;;;16.49;44.13;95923.78;6126824;23;20614;-82
2023/01/02 11:07:38;;;;;;;5.95;1.83;;;;;;;16.59;44.27;95921.53;6126386;23;20214;-81
2023/01/02 11:10:23;;;;;;;1.95;1.73;;;;;;;16.56;44.27;95913.34;6127544;23;20195;-82
2023/01/02 11:12:51;;;;;;;2.30;1.83;;;;;;;16.50;50.07;95919.38;6126398;23;20174;-82
2023/01/02 11:15:25;;;;;;;2.55;1.45;;;;;;;16.49;45.15;95923.78;6130042;23;20203;-81
2023/01/02 11:17:52;;;;;;;3.42;1.40;;;;;;;16.32;44.65;95917.44;6126775;23;20774;-82
2023/01/02 11:20:24;;;;;;;2.17;1.77;;;;;;;16.24;44.70;95917.66;6126331;23;20180;-82
2023/01/02 11:22:51;;;;;;;1.80;1.40;;;;;;;16.17;44.02;95925.44;6126501;23;20160;-81
2023/01/02 11:25:22;;;;;;;1.88;1.50;;;;;;;16.16;44.00;95916.03;6126369;23;20175;-82
2023/01/02 11:27:50;;;;;;;1.75;1.58;;;;;;;16.22;43.97;95909.25;6125942;23;20195;-83
2023/01/02 11:30:34;;;;;;;3.63;1.70;;;;;;;16.23;42.67;95916.84;6126860;23;20186;-82
2023/01/02 11:33:04;;;;;;;6.03;4.03;;;;;;;16.21;44.06;95916.25;6125890;23;20163;-82
2023/01/02 11:35:43;;;;;;;18.38;12.82;;;;;;;16.20;43.33;95922.44;6125395;23;20164;-82
2023/01/02 11:38:18;;;;;;;3.70;3.30;;;;;;;16.20;43.49;95917.25;6125228;23;20844;-81
2023/01/02 11:40:53;;;;;;;3.28;2.03;;;;;;;16.10;43.69;95910.88;6127505;23;20174;-82
2023/01/02 11:46:21;;;;;;;1.95;1.70;;;;;;;15.95;43.63;95910.31;6124067;23;20382;-83
2023/01/02 11:48:49;;;;;;;1.67;1.30;;;;;;;15.88;43.47;95905.91;6125145;23;20537;-83
2023/01/02 11:51:18;;;;;;;2.10;1.30;;;;;;;15.88;43.71;95905.91;6125458;23;20203;-82
2023/01/02 11:53:46;;;;;;;1.70;1.60;;;;;;;15.86;43.68;95907.91;6125034;23;20175;-82